Time;durP1;ratioP1;P1;durP2;ratioP2;P2;SDS_P1;SDS_P2;PMS_P1;PMS_P2;Temp;Humidity;BMP_temperature;BMP_pressure;BME280_temperature;BME280_humidity;BME280_pressure;Samples;Min_cycle;Max_cycle;Signal;HPM_P1;HPM_P2
2023/03/27 00:00:44;;;;;;;7.03;2.20;;;;;;;-145.18;100.00;46734.63;6153525;23;20239;-73
2023/03/27 00:03:11;;;;;;;7.03;1.97;;;;;;;-145.18;100.00;46740.47;6152796;23;20334;-73
2023/03/27 00:05:37;;;;;;;9.90;1.60;;;;;;;-145.18;100.00;46732.66;6153609;23;20219;-73
2023/03/27 00:08:04;;;;;;;8.93;2.67;;;;;;;-145.18;100.00;46734.63;6152892;23;20232;-73
2023/03/27 00:10:31;;;;;;;16.23;1.87;;;;;;;-145.18;100.00;46734.63;6153217;23;20033;-73
2023/03/27 00:12:57;;;;;;;7.23;1.50;;;;;;;-145.18;100.00;46736.56;6153197;23;20232;-73
2023/03/27 00:15:23;;;;;;;10.67;1.87;;;;;;;-145.18;100.00;46744.38;6152922;23;20238;-73
2023/03/27 00:17:50;;;;;;;13.63;2.27;;;;;;;-145.18;100.00;46746.34;6152858;23;20231;-73
2023/03/27 00:20:20;;;;;;;12.93;1.83;;;;;;;-145.18;100.00;46769.78;6151525;23;20018;-73
2023/03/27 00:22:48;;;;;;;7.10;1.70;;;;;;;-145.18;100.00;46746.34;6153136;23;20669;-73
2023/03/27 00:25:15;;;;;;;7.83;1.37;;;;;;;-145.18;100.00;46769.78;6152839;23;20318;-73
2023/03/27 00:27:42;;;;;;;17.27;1.90;;;;;;;-145.18;100.00;46744.38;6153121;23;20224;-73
2023/03/27 00:30:09;;;;;;;10.00;1.80;;;;;;;-145.18;100.00;46754.16;6153087;23;20236;-73
2023/03/27 00:32:35;;;;;;;15.80;1.97;;;;;;;-145.18;100.00;46750.25;6153105;23;20569;-73
2023/03/27 00:35:02;;;;;;;8.27;1.80;;;;;;;-145.18;100.00;46748.28;6152877;23;20267;-73
2023/03/27 00:37:27;;;;;;;9.50;1.70;;;;;;;-145.18;100.00;46736.56;6152941;23;20227;-73
2023/03/27 00:39:53;;;;;;;13.27;2.30;;;;;;;-145.18;100.00;46738.53;6151448;23;21018;-73
2023/03/27 00:42:21;;;;;;;7.60;1.57;;;;;;;-145.18;100.00;46742.44;6152434;23;20047;-73
2023/03/27 00:44:50;;;;;;;10.90;2.40;;;;;;;-145.18;100.00;46717.03;6153153;23;20439;-73
2023/03/27 00:47:17;;;;;;;9.67;2.13;;;;;;;-145.18;100.00;46732.66;6152606;23;20234;-73
2023/03/27 00:49:43;;;;;;;11.47;1.47;;;;;;;-145.18;100.00;46722.91;6153056;23;20302;-73
2023/03/27 00:52:09;;;;;;;12.87;2.17;;;;;;;-145.18;100.00;46715.09;6152510;23;20280;-73
2023/03/27 00:54:40;;;;;;;10.17;3.20;;;;;;;-145.18;100.00;46711.19;6152984;23;20262;-73
2023/03/27 00:57:10;;;;;;;7.27;1.13;;;;;;;-145.18;100.00;46717.03;6152693;23;20675;-73
2023/03/27 00:59:40;;;;;;;10.03;1.43;;;;;;;-145.18;100.00;46713.13;6153325;23;20259;-73
2023/03/27 01:02:07;;;;;;;6.97;1.57;;;;;;;-145.18;100.00;46713.13;6152122;23;20224;-72
2023/03/27 01:04:35;;;;;;;8.43;1.77;;;;;;;-145.18;100.00;46715.09;6152802;23;20313;-73
2023/03/27 01:07:04;;;;;;;8.17;1.97;;;;;;;-145.18;100.00;46715.09;6152931;23;20247;-73
2023/03/27 01:09:30;;;;;;;16.00;1.90;;;;;;;-145.18;100.00;46726.81;6152966;23;20693;-72
2023/03/27 01:12:46;;;;;;;12.47;1.70;;;;;;;-145.18;100.00;46730.72;6152364;23;20239;-73
2023/03/27 01:15:46;;;;;;;7.65;1.52;;;;;;;-145.18;100.00;46730.72;6087217;23;20235;-73
2023/03/27 01:18:24;;;;;;;9.63;1.90;;;;;;;-145.18;100.00;46730.72;6152014;23;20576;-73
2023/03/27 01:21:11;;;;;;;11.37;1.40;;;;;;;-145.18;100.00;46722.91;6152775;23;20231;-72
2023/03/27 01:23:43;;;;;;;9.00;1.47;;;;;;;-145.18;100.00;46730.72;6152306;23;20240;-73
2023/03/27 01:26:26;;;;;;;11.97;1.20;;;;;;;-145.18;100.00;46736.56;6152483;23;21012;-73
2023/03/27 01:29:06;;;;;;;13.40;2.03;;;;;;;-145.18;100.00;46724.84;6152414;23;20537;-73
2023/03/27 01:32:05;;;;;;;6.87;1.50;;;;;;;-145.18;100.00;46736.56;6152444;23;20314;-72
2023/03/27 01:34:59;;;;;;;12.03;1.50;;;;;;;-145.18;100.00;46738.53;6152599;23;20224;-72
2023/03/27 01:37:30;;;;;;;7.00;1.27;;;;;;;-145.18;100.00;46736.56;6148651;23;20258;-73
2023/03/27 01:40:06;;;;;;;7.47;1.33;;;;;;;-145.18;100.00;46734.63;6152229;23;20282;-73
2023/03/27 01:42:39;;;;;;;;;;;;;;;-145.18;100.00;46738.53;6152866;23;20251;-73
2023/03/27 01:45:23;;;;;;;5.93;1.17;;;;;;;-145.18;100.00;46726.81;6152362;23;20012;-73
2023/03/27 01:48:11;;;;;;;15.20;1.50;;;;;;;-145.18;100.00;46715.09;6152210;23;20332;-73
2023/03/27 01:50:53;;;;;;;10.60;1.50;;;;;;;-145.18;100.00;46722.91;6152444;23;20232;-73
2023/03/27 01:53:24;;;;;;;11.73;1.50;;;;;;;-145.18;100.00;46713.13;6152037;23;20235;-72
2023/03/27 01:55:57;;;;;;;5.70;1.10;;;;;;;-145.18;100.00;46719.00;6152356;23;20240;-72
2023/03/27 01:58:28;;;;;;;5.47;1.00;;;;;;;-145.18;100.00;46717.03;6151999;23;20239;-73
2023/03/27 02:03:40;;;;;;;5.43;0.98;;;;;;;-145.18;100.00;46709.22;6164422;23;20274;-73
2023/03/27 02:06:10;;;;;;;11.17;1.00;;;;;;;-145.18;100.00;46713.13;6182275;23;20438;-73
2023/03/27 02:08:42;;;;;;;5.23;1.40;;;;;;;-145.18;100.00;46707.28;6182237;23;20322;-73
2023/03/27 02:11:07;;;;;;;10.57;1.70;;;;;;;-145.18;100.00;46715.09;6182916;23;20293;-73
2023/03/27 02:13:42;;;;;;;7.70;1.43;;;;;;;-145.18;100.00;46697.50;6182229;23;20675;-73
2023/03/27 02:16:12;;;;;;;6.17;1.57;;;;;;;-145.18;100.00;46707.28;6182532;23;19997;-73
2023/03/27 02:18:46;;;;;;;4.40;1.47;;;;;;;-145.18;100.00;46703.38;6181856;23;20223;-73
2023/03/27 02:21:13;;;;;;;5.27;1.63;;;;;;;-145.18;100.00;46715.09;6182529;23;20301;-73
2023/03/27 02:23:39;;;;;;;7.43;1.00;;;;;;;-145.18;100.00;46701.41;6181546;23;20242;-73
2023/03/27 02:26:05;;;;;;;5.07;1.27;;;;;;;-145.18;100.00;46707.28;6182526;23;20246;-73
2023/03/27 02:28:51;;;;;;;8.23;1.77;;;;;;;-145.18;100.00;46699.47;6182268;23;20244;-73
2023/03/27 02:31:41;;;;;;;6.60;1.23;;;;;;;-145.18;100.00;46699.47;6182457;23;20016;-73
2023/03/27 02:34:39;;;;;;;4.80;1.03;;;;;;;-145.18;100.00;46689.69;6182363;23;20229;-73
2023/03/27 02:37:14;;;;;;;7.70;1.03;;;;;;;-145.18;100.00;46685.78;6101583;23;20241;-73
2023/03/27 02:39:47;;;;;;;9.75;1.58;;;;;;;-145.18;100.00;46674.06;6182741;23;20235;-74
2023/03/27 02:42:40;;;;;;;4.13;1.17;;;;;;;-145.18;100.00;46687.75;6182473;23;20331;-73
2023/03/27 02:45:29;;;;;;;9.23;1.40;;;;;;;-145.18;100.00;46676.03;6183913;23;20257;-73
2023/03/27 02:48:00;;;;;;;6.53;1.63;;;;;;;-145.18;100.00;46672.13;6183726;23;20239;-73
2023/03/27 02:50:34;;;;;;;9.03;1.10;;;;;;;-145.18;100.00;46652.59;6184180;23;20223;-73
2023/03/27 02:53:03;;;;;;;2.53;0.97;;;;;;;-145.18;100.00;46660.41;6183803;23;20231;-73
2023/03/27 02:55:36;;;;;;;4.63;1.23;;;;;;;-145.18;100.00;46654.53;6184522;23;20285;-73
2023/03/27 02:58:09;;;;;;;4.77;1.30;;;;;;;-145.18;100.00;46660.41;6183844;23;20676;-73
2023/03/27 03:00:40;;;;;;;6.53;1.50;;;;;;;-145.18;100.00;46654.53;6183939;23;20234;-73
2023/03/27 03:03:12;;;;;;;12.13;1.50;;;;;;;-145.18;100.00;46648.69;6183629;23;20251;-73
2023/03/27 03:05:38;;;;;;;4.50;1.33;;;;;;;-145.18;100.00;46635.00;6184033;23;20246;-73
2023/03/27 03:08:04;;;;;;;11.90;1.93;;;;;;;-145.18;100.00;46636.94;6183832;23;20231;-73
2023/03/27 03:10:30;;;;;;;5.70;1.73;;;;;;;-145.18;100.00;46660.41;6183611;23;20013;-73
2023/03/27 03:12:55;;;;;;;16.67;1.53;;;;;;;-145.18;100.00;46660.41;6181935;23;20564;-73
2023/03/27 03:15:21;;;;;;;4.10;1.23;;;;;;;-145.18;100.00;46660.41;6183916;23;20008;-73
2023/03/27 03:17:47;;;;;;;5.13;1.87;;;;;;;-145.18;100.00;46660.41;6183410;23;20009;-73
2023/03/27 03:20:12;;;;;;;8.37;1.43;;;;;;;-145.18;100.00;46660.41;6184056;23;20016;-73
2023/03/27 03:22:38;;;;;;;14.43;1.30;;;;;;;-145.18;100.00;46660.41;6183645;23;20236;-73
2023/03/27 03:25:06;;;;;;;6.13;1.30;;;;;;;-145.18;100.00;46660.41;6182689;23;20009;-73
2023/03/27 03:27:32;;;;;;;8.70;1.27;;;;;;;-145.18;100.00;46654.53;6183545;23;20442;-73
2023/03/27 03:29:59;;;;;;;10.43;1.47;;;;;;;-145.18;100.00;46652.59;6183605;23;20231;-73
2023/03/27 03:32:25;;;;;;;10.37;3.27;;;;;;;-145.18;100.00;46640.88;6183580;23;20234;-73
2023/03/27 03:34:51;;;;;;;12.97;2.93;;;;;;;-145.18;100.00;46652.59;6183837;23;20235;-73
2023/03/27 03:37:16;;;;;;;13.47;1.80;;;;;;;-145.18;100.00;46652.59;6183851;23;20692;-73
2023/03/27 03:39:42;;;;;;;4.77;1.40;;;;;;;-145.18;100.00;46652.59;6183623;23;20009;-73
2023/03/27 03:42:07;;;;;;;17.73;2.70;;;;;;;-145.18;100.00;46654.53;6183648;23;20791;-73
2023/03/27 03:44:36;;;;;;;11.97;1.87;;;;;;;-145.18;100.00;46652.59;6183683;23;20092;-73
2023/03/27 03:47:02;;;;;;;10.13;2.03;;;;;;;-145.18;100.00;46650.63;6183401;23;20005;-73
2023/03/27 03:49:27;;;;;;;12.73;1.50;;;;;;;-145.18;100.00;46640.88;6183761;23;20234;-73
2023/03/27 03:51:52;;;;;;;11.83;1.97;;;;;;;-145.18;100.00;46654.53;6183233;23;20235;-73
2023/03/27 03:54:18;;;;;;;12.50;2.30;;;;;;;-145.18;100.00;46650.63;6183605;23;20012;-73
2023/03/27 03:56:43;;;;;;;9.27;2.10;;;;;;;-145.18;100.00;46654.53;6183402;23;20076;-73
2023/03/27 03:59:10;;;;;;;8.97;2.00;;;;;;;-145.18;100.00;46640.88;6183703;23;20016;-73
2023/03/27 04:01:36;;;;;;;9.33;2.13;;;;;;;-145.18;100.00;46656.50;6183533;23;20091;-73
2023/03/27 04:04:03;;;;;;;10.40;1.87;;;;;;;-145.18;100.00;46642.81;6182685;23;20576;-73
2023/03/27 04:06:29;;;;;;;11.20;1.70;;;;;;;-145.18;100.00;46638.91;6183853;23;20231;-73
2023/03/27 04:08:55;;;;;;;8.00;0.97;;;;;;;-145.18;100.00;46652.59;6182565;23;20235;-73
2023/03/27 04:11:21;;;;;;;14.73;1.83;;;;;;;-145.18;100.00;46656.50;6183615;23;20270;-73
2023/03/27 04:13:47;;;;;;;14.50;1.27;;;;;;;-145.18;100.00;46642.81;6182230;23;20231;-73
2023/03/27 04:16:12;;;;;;;8.60;1.43;;;;;;;-145.18;100.00;46642.81;6183483;23;20580;-73
2023/03/27 04:18:39;;;;;;;3.57;1.10;;;;;;;-145.18;100.00;46652.59;6182925;23;20009;-73
2023/03/27 04:21:13;;;;;;;6.77;1.77;;;;;;;-145.18;100.00;46640.88;6176000;23;20067;-73
2023/03/27 04:23:38;;;;;;;3.47;1.00;;;;;;;-145.18;100.00;46656.50;6183307;23;20792;-73
2023/03/27 04:26:04;;;;;;;9.03;1.57;;;;;;;-145.18;100.00;46656.50;6183187;23;20263;-73
2023/03/27 04:28:33;;;;;;;3.67;1.00;;;;;;;-145.18;100.00;46652.59;6183040;23;20006;-73
2023/03/27 04:31:05;;;;;;;2.87;1.00;;;;;;;-145.18;100.00;46658.44;6182954;23;20012;-73
2023/03/27 04:33:34;;;;;;;4.50;1.13;;;;;;;-145.18;100.00;46660.41;6182932;23;20746;-73
2023/03/27 04:36:00;;;;;;;4.53;0.77;;;;;;;-145.18;100.00;46660.41;6183182;23;20227;-73
2023/03/27 04:38:27;;;;;;;5.03;1.13;;;;;;;-145.18;100.00;46660.41;6182892;23;20270;-73
2023/03/27 04:40:53;;;;;;;7.07;0.97;;;;;;;-145.18;100.00;46633.06;6182989;23;20223;-73
2023/03/27 04:43:18;;;;;;;6.30;0.87;;;;;;;-145.18;100.00;46642.81;6182523;23;20227;-73
2023/03/27 04:45:47;;;;;;;2.73;0.70;;;;;;;-145.18;100.00;46640.88;6182863;23;20105;-73
2023/03/27 04:48:14;;;;;;;4.60;0.93;;;;;;;-145.18;100.00;46646.72;6182638;23;20016;-73
2023/03/27 04:50:42;;;;;;;4.30;0.90;;;;;;;-145.18;100.00;46650.63;6182502;23;20236;-73
2023/03/27 04:53:08;;;;;;;7.53;1.03;;;;;;;-145.18;100.00;46648.69;6182140;23;20314;-73
2023/03/27 04:55:36;;;;;;;5.37;1.07;;;;;;;-145.18;100.00;46656.50;6182218;23;20302;-73
2023/03/27 04:58:06;;;;;;;4.00;0.97;;;;;;;-145.18;100.00;46660.41;6182744;23;20374;-73
2023/03/27 05:00:32;;;;;;;3.93;1.10;;;;;;;-145.18;100.00;46664.31;6182809;23;20227;-73
2023/03/27 05:02:59;;;;;;;2.97;0.90;;;;;;;-145.18;100.00;46654.53;6181882;23;20307;-73
2023/03/27 05:05:25;;;;;;;6.07;1.20;;;;;;;-145.18;100.00;46654.53;6182927;23;20017;-73
2023/03/27 05:07:50;;;;;;;7.73;1.20;;;;;;;-145.18;100.00;46640.88;6182746;23;20817;-73
2023/03/27 05:10:16;;;;;;;3.53;0.97;;;;;;;-145.18;100.00;46658.44;6182981;23;20009;-73
2023/03/27 05:12:43;;;;;;;5.00;0.97;;;;;;;-145.18;100.00;46648.69;6182286;23;20001;-73
2023/03/27 05:15:09;;;;;;;7.23;0.80;;;;;;;-145.18;100.00;46654.53;6183032;23;20016;-73
2023/03/27 05:17:42;;;;;;;7.60;1.50;;;;;;;-145.18;100.00;46638.91;6182581;23;20676;-73
2023/03/27 05:20:13;;;;;;;8.47;1.17;;;;;;;-145.18;100.00;46660.41;6182358;23;20274;-73
2023/03/27 05:22:39;;;;;;;9.23;1.30;;;;;;;-145.18;100.00;46660.41;6180776;23;20242;-73
2023/03/27 05:25:05;;;;;;;5.10;1.90;;;;;;;-145.18;100.00;46660.41;6182493;23;20261;-74
2023/03/27 05:27:31;;;;;;;6.57;0.60;;;;;;;-145.18;100.00;46660.41;6182554;23;20231;-73
2023/03/27 05:29:56;;;;;;;4.83;1.30;;;;;;;-145.18;100.00;46652.59;6182677;23;20508;-73
2023/03/27 05:32:22;;;;;;;3.77;1.50;;;;;;;-145.18;100.00;46652.59;6182452;23;20009;-73
2023/03/27 05:34:49;;;;;;;3.47;1.17;;;;;;;-145.18;100.00;46654.53;6182445;23;20013;-73
2023/03/27 05:37:16;;;;;;;6.65;1.60;;;;;;;-145.18;100.00;46660.41;6182723;23;20621;-73
2023/03/27 05:39:45;;;;;;;7.07;2.28;;;;;;;-145.18;100.00;46660.41;6182179;23;20009;-73
2023/03/27 05:42:12;;;;;;;7.78;2.60;;;;;;;-145.18;100.00;46646.72;6182789;23;20093;-73
2023/03/27 05:44:38;;;;;;;9.60;2.25;;;;;;;-145.18;100.00;46664.31;6182361;23;20013;-73
2023/03/27 05:47:03;;;;;;;8.33;2.37;;;;;;;-145.18;100.00;46691.66;6182517;23;20088;-72
2023/03/27 05:49:29;;;;;;;6.07;2.50;;;;;;;-145.18;100.00;46697.50;6182359;23;20365;-73
2023/03/27 05:51:54;;;;;;;5.60;1.80;;;;;;;-145.18;100.00;46697.50;6182034;23;20045;-73
2023/03/27 05:54:20;;;;;;;10.80;2.13;;;;;;;-145.18;100.00;46695.56;6182450;23;20005;-73
2023/03/27 05:56:45;;;;;;;6.70;1.80;;;;;;;-145.18;100.00;46703.38;6182139;23;20619;-72
2023/03/27 05:59:10;;;;;;;6.10;1.50;;;;;;;-145.18;100.00;46697.50;6182406;23;20008;-73
2023/03/27 06:01:36;;;;;;;6.37;1.67;;;;;;;-145.18;100.00;46691.66;6182244;23;20080;-72
2023/03/27 06:04:03;;;;;;;7.77;1.63;;;;;;;-145.18;100.00;46685.78;6180395;23;20075;-73
2023/03/27 06:06:28;;;;;;;5.43;1.30;;;;;;;-145.18;100.00;46672.13;6182404;23;20043;-73
2023/03/27 06:08:54;;;;;;;4.23;1.27;;;;;;;-145.18;100.00;46668.22;6181836;23;20223;-73
2023/03/27 06:11:20;;;;;;;7.95;1.73;;;;;;;-145.18;100.00;46656.50;6182295;23;20013;-73
2023/03/27 06:13:45;;;;;;;4.23;2.07;;;;;;;-145.18;100.00;46646.72;6181559;23;20461;-73
2023/03/27 06:16:11;;;;;;;5.27;1.27;;;;;;;-145.18;100.00;46646.72;6182325;23;20013;-73
2023/03/27 06:18:36;;;;;;;13.33;1.93;;;;;;;-145.18;100.00;46638.91;6181820;23;20442;-72
2023/03/27 06:21:02;;;;;;;5.93;1.90;;;;;;;-145.18;100.00;46633.06;6179892;23;20449;-73
2023/03/27 06:23:27;;;;;;;8.63;1.60;;;;;;;-145.18;100.00;46636.94;6179998;23;20009;-73
2023/03/27 06:25:53;;;;;;;5.20;1.67;;;;;;;-145.18;100.00;46636.94;6178096;23;20015;-72
2023/03/27 06:28:19;;;;;;;11.37;1.33;;;;;;;-145.18;100.00;46629.13;6179108;23;20013;-73
2023/03/27 06:30:46;;;;;;;7.70;1.53;;;;;;;-145.18;100.00;46625.22;6179561;23;20009;-72
2023/03/27 06:33:13;;;;;;;14.93;2.00;;;;;;;-145.18;100.00;46619.38;6178760;23;20775;-72
2023/03/27 06:35:40;;;;;;;12.23;2.13;;;;;;;-145.18;100.00;46613.50;6180933;23;20708;-72
2023/03/27 06:38:06;;;;;;;6.33;1.53;;;;;;;-145.18;100.00;46611.56;6182117;23;20217;-73
2023/03/27 06:40:34;;;;;;;8.57;2.20;;;;;;;-145.18;100.00;46603.75;6182403;23;20231;-73
2023/03/27 06:43:09;;;;;;;9.63;2.20;;;;;;;-145.18;100.00;46592.03;6182068;23;20083;-72
2023/03/27 06:45:42;;;;;;;8.43;1.73;;;;;;;-145.18;100.00;46590.06;6180407;23;20689;-72
2023/03/27 06:48:08;;;;;;;6.83;1.60;;;;;;;-145.18;100.00;46576.41;6182291;23;20376;-72
2023/03/27 06:50:34;;;;;;;9.10;2.10;;;;;;;-145.18;100.00;46574.44;6182063;23;20231;-72
2023/03/27 06:53:00;;;;;;;7.00;1.53;;;;;;;-145.18;100.00;46580.31;6181510;23;20219;-73
2023/03/27 06:55:27;;;;;;;8.07;1.70;;;;;;;-145.18;100.00;46590.06;6182523;23;20331;-73
2023/03/27 06:57:54;;;;;;;4.30;1.80;;;;;;;-145.18;100.00;46590.06;6181497;23;20239;-72
2023/03/27 07:00:23;;;;;;;7.17;1.27;;;;;;;-145.18;100.00;46609.59;6181640;23;20235;-73
2023/03/27 07:03:03;;;;;;;6.63;1.70;;;;;;;-145.18;100.00;46619.38;6181241;23;20266;-73
2023/03/27 07:05:31;;;;;;;7.17;1.50;;;;;;;-145.18;100.00;46635.00;6182255;23;20250;-73
2023/03/27 07:07:56;;;;;;;9.47;1.43;;;;;;;-145.18;100.00;46650.63;6181410;23;20301;-73
2023/03/27 07:10:23;;;;;;;13.43;2.27;;;;;;;-145.18;100.00;46664.31;6181968;23;20242;-73
2023/03/27 07:12:53;;;;;;;19.20;2.20;;;;;;;-145.18;100.00;46681.88;6179961;23;20484;-73
2023/03/27 07:15:18;;;;;;;6.63;1.60;;;;;;;-145.18;100.00;46683.84;6181985;23;20235;-73
2023/03/27 07:17:55;;;;;;;8.50;1.37;;;;;;;-145.18;100.00;46695.56;6181504;23;20243;-73
2023/03/27 07:20:21;;;;;;;10.63;2.23;;;;;;;-145.18;100.00;46713.13;6181059;23;20005;-73
2023/03/27 07:22:47;;;;;;;12.20;1.93;;;;;;;-145.18;100.00;46722.91;6181420;23;20266;-73
2023/03/27 07:25:12;;;;;;;10.27;1.50;;;;;;;-145.18;100.00;46746.34;6181973;23;20258;-73
2023/03/27 07:27:38;;;;;;;5.57;1.40;;;;;;;-145.18;100.00;46783.47;6183634;23;20013;-71
2023/03/27 07:30:06;;;;;;;7.73;1.67;;;;;;;-145.18;100.00;46789.31;6183606;23;20760;-71
2023/03/27 07:32:35;;;;;;;5.23;1.33;;;;;;;-145.18;100.00;46818.63;6183740;23;20442;-71
2023/03/27 07:35:03;;;;;;;5.70;1.50;;;;;;;-145.18;100.00;46845.97;6183318;23;20285;-71
2023/03/27 07:37:28;;;;;;;9.60;1.50;;;;;;;-145.18;100.00;46838.16;6183582;23;20683;-71
2023/03/27 07:39:54;;;;;;;7.83;1.73;;;;;;;-145.18;100.00;46840.09;6183019;23;20274;-73
2023/03/27 07:42:19;;;;;;;6.30;1.30;;;;;;;-145.18;100.00;46840.09;6183630;23;20037;-73
2023/03/27 07:44:45;;;;;;;11.10;1.37;;;;;;;-145.18;100.00;46865.50;6181380;23;20016;-73
2023/03/27 07:47:11;;;;;;;10.17;1.90;;;;;;;-145.18;100.00;46832.28;6183471;23;20016;-73
2023/03/27 07:49:36;;;;;;;7.17;1.47;;;;;;;-145.18;100.00;46869.41;6181431;23;20342;-73
2023/03/27 07:52:03;;;;;;;6.73;1.60;;;;;;;-145.18;100.00;46842.06;6183124;23;20219;-73
2023/03/27 07:54:30;;;;;;;8.83;1.60;;;;;;;-145.18;100.00;46859.63;6183678;23;20012;-73
2023/03/27 07:56:56;;;;;;;6.03;1.53;;;;;;;-145.18;100.00;46883.09;6183146;23;20672;-73
2023/03/27 07:59:21;;;;;;;7.57;2.13;;;;;;;-145.18;100.00;46863.53;6183078;23;20227;-73
2023/03/27 08:01:49;;;;;;;14.07;1.40;;;;;;;-145.18;100.00;46912.38;6183078;23;20016;-73
2023/03/27 08:04:18;;;;;;;4.47;1.50;;;;;;;-145.18;100.00;46888.94;6182850;23;20041;-73
2023/03/27 08:06:43;;;;;;;6.63;1.40;;;;;;;-145.18;100.00;46902.63;6183130;23;20231;-73
2023/03/27 08:09:09;;;;;;;8.23;1.23;;;;;;;-145.18;100.00;46937.78;6183151;23;20273;-73
2023/03/27 08:11:36;;;;;;;4.53;1.40;;;;;;;-145.18;100.00;46990.53;6183179;23;20005;-73
2023/03/27 08:14:02;;;;;;;4.43;1.00;;;;;;;-145.18;100.00;47049.13;6182814;23;20009;-74
2023/03/27 08:16:28;;;;;;;9.00;0.93;;;;;;;-145.18;100.00;46992.47;6183181;23;20242;-73
2023/03/27 08:18:54;;;;;;;3.63;0.67;;;;;;;-145.18;100.00;46955.34;6182602;23;20747;-73
2023/03/27 08:21:19;;;;;;;4.93;0.93;;;;;;;-145.18;100.00;46984.66;6183011;23;20009;-73
2023/03/27 08:23:46;;;;;;;2.43;0.87;;;;;;;-145.18;100.00;46953.41;6180977;23;20032;-73
2023/03/27 08:26:12;;;;;;;4.60;0.80;;;;;;;-145.18;100.00;47015.91;6183371;23;20339;-73
2023/03/27 08:28:38;;;;;;;7.20;1.17;;;;;;;-145.18;100.00;46931.91;6182871;23;20222;-73
2023/03/27 08:31:12;;;;;;;7.93;0.63;;;;;;;-145.18;100.00;46961.22;6182729;23;20258;-73
2023/03/27 08:33:40;;;;;;;4.60;0.90;;;;;;;-145.18;100.00;46978.81;6182887;23;20009;-73
2023/03/27 08:36:07;;;;;;;9.37;1.27;;;;;;;-145.18;100.00;46869.41;6181239;23;20239;-73
2023/03/27 08:38:32;;;;;;;5.57;1.00;;;;;;;-145.18;100.00;46756.09;6180724;23;20231;-73
2023/03/27 08:40:59;;;;;;;6.57;1.33;;;;;;;-145.18;100.00;46728.75;6182508;23;20285;-73
2023/03/27 08:43:38;;;;;;;7.20;0.73;;;;;;;-145.18;100.00;46705.31;6182763;23;20011;-74
2023/03/27 08:46:12;;;;;;;8.97;0.80;;;;;;;-145.18;100.00;46687.75;6183194;23;20600;-73
2023/03/27 08:48:46;;;;;;;11.67;1.73;;;;;;;-145.18;100.00;46676.03;6182625;23;20258;-73
2023/03/27 08:51:18;;;;;;;4.90;1.00;;;;;;;-145.18;100.00;46664.31;6183114;23;20223;-73
2023/03/27 08:53:54;;;;;;;6.00;0.90;;;;;;;-145.18;100.00;46650.63;6182545;23;20223;-74
2023/03/27 08:56:20;;;;;;;11.77;1.13;;;;;;;-145.18;100.00;46640.88;6182906;23;20234;-73
2023/03/27 08:58:46;;;;;;;7.63;1.33;;;;;;;-145.18;100.00;46633.06;6182398;23;20235;-73
2023/03/27 09:01:28;;;;;;;11.17;1.20;;;;;;;-145.18;100.00;46646.72;6182805;23;20016;-72
2023/03/27 09:04:03;;;;;;;7.43;1.57;;;;;;;-145.18;100.00;46648.69;6180353;23;20021;-73
2023/03/27 09:06:40;;;;;;;12.18;1.02;;;;;;;-145.18;100.00;46683.84;6182616;23;20239;-72
2023/03/27 09:09:18;;;;;;;4.80;1.10;;;;;;;-145.18;100.00;46693.59;6182306;23;20015;-72
2023/03/27 09:12:01;;;;;;;5.53;0.80;;;;;;;-145.18;100.00;46742.44;6182927;23;20226;-73
2023/03/27 09:14:34;;;;;;;2.00;0.60;;;;;;;-145.18;100.00;46801.03;6182447;23;20678;-73
2023/03/27 09:17:13;;;;;;;2.33;0.40;;;;;;;-145.18;100.00;46879.19;6182297;23;20223;-73
2023/03/27 09:19:48;;;;;;;2.37;0.57;;;;;;;-145.18;100.00;46894.81;6182652;23;20561;-73
2023/03/27 09:22:26;;;;;;;3.83;0.50;;;;;;;-145.18;100.00;46883.09;6182688;23;20692;-73
2023/03/27 09:24:55;;;;;;;4.47;0.50;;;;;;;-145.18;100.00;46922.16;6182049;23;20387;-73
2023/03/27 09:27:31;;;;;;;6.93;0.60;;;;;;;-145.18;100.00;46941.69;6182544;23;20676;-73
2023/03/27 09:30:09;;;;;;;2.60;0.40;;;;;;;-145.18;100.00;46953.41;6181883;23;20766;-73
2023/03/27 09:32:36;;;;;;;4.50;0.33;;;;;;;-145.18;100.00;46971.00;6182607;23;20223;-72
2023/03/27 09:35:03;;;;;;;4.33;0.77;;;;;;;-145.18;100.00;46912.38;6181978;23;20271;-73
2023/03/27 09:37:28;;;;;;;4.47;0.50;;;;;;;-145.18;100.00;46885.03;6182764;23;20231;-72
2023/03/27 09:39:55;;;;;;;3.50;0.50;;;;;;;-145.18;100.00;46922.16;6181824;23;20672;-73
2023/03/27 09:42:32;;;;;;;3.03;0.50;;;;;;;-145.18;100.00;46904.56;6182533;23;20001;-72
2023/03/27 09:45:03;;;;;;;9.13;0.77;;;;;;;-145.18;100.00;46924.09;6181869;23;20336;-72
2023/03/27 09:47:57;;;;;;;7.70;0.60;;;;;;;-145.18;100.00;46918.25;6182469;23;20219;-73
2023/03/27 09:50:43;;;;;;;5.60;0.73;;;;;;;-145.18;100.00;46926.06;6182253;23;20235;-73
2023/03/27 09:53:14;;;;;;;7.80;0.85;;;;;;;-145.18;100.00;46896.75;6181808;23;20227;-73
2023/03/27 09:56:02;;;;;;;3.17;0.60;;;;;;;-145.18;100.00;46965.13;6182439;23;20013;-72
2023/03/27 09:58:35;;;;;;;6.13;1.20;;;;;;;-145.18;100.00;46953.41;6182123;23;20231;-72
2023/03/27 10:01:33;;;;;;;12.77;1.13;;;;;;;-145.18;100.00;46929.97;6182475;23;20254;-73
2023/03/27 10:04:00;;;;;;;5.37;1.13;;;;;;;-145.18;100.00;46935.81;6173647;23;20271;-73
2023/03/27 10:06:25;;;;;;;4.70;0.87;;;;;;;-145.18;100.00;46887.00;6182315;23;20837;-73
2023/03/27 10:08:51;;;;;;;1.90;0.50;;;;;;;-145.18;100.00;46885.03;6181577;23;20254;-72
2023/03/27 10:11:21;;;;;;;5.20;1.00;;;;;;;-145.18;100.00;46838.16;6182248;23;20029;-73
2023/03/27 10:13:48;;;;;;;5.27;0.70;;;;;;;-145.18;100.00;46894.81;6181800;23;20314;-73
2023/03/27 10:16:16;;;;;;;1.13;0.30;;;;;;;-145.18;100.00;46959.25;6182266;23;20378;-72
2023/03/27 10:18:48;;;;;;;5.50;0.50;;;;;;;-145.18;100.00;46916.28;6181964;23;20242;-72
2023/03/27 10:21:37;;;;;;;2.37;0.80;;;;;;;-145.18;100.00;47074.53;6182302;23;20238;-73
2023/03/27 10:24:05;;;;;;;1.33;0.57;;;;;;;-145.18;100.00;47588.34;6181764;23;20247;-73
2023/03/27 10:26:32;;;;;;;2.23;0.40;;;;;;;-145.18;100.00;47646.97;6182353;23;20245;-73
2023/03/27 10:29:05;;;;;;;3.87;0.90;;;;;;;-145.18;100.00;47570.75;6181537;23;20222;-72
2023/03/27 10:31:38;;;;;;;4.50;0.50;;;;;;;-145.18;100.00;47582.47;6182253;23;20549;-73
2023/03/27 10:34:25;;;;;;;2.73;0.53;;;;;;;-145.18;100.00;47564.91;6180191;23;20227;-72
2023/03/27 10:36:53;;;;;;;5.53;0.90;;;;;;;-145.18;100.00;47559.03;6181832;23;20257;-73
2023/03/27 10:39:19;;;;;;;8.07;0.90;;;;;;;-145.18;100.00;47590.28;6181721;23;20529;-73
2023/03/27 10:41:46;;;;;;;3.90;0.67;;;;;;;-145.18;100.00;47576.63;6182065;23;20240;-72
2023/03/27 10:44:19;;;;;;;6.37;0.90;;;;;;;-145.18;100.00;47557.06;6180223;23;20254;-73
2023/03/27 10:46:45;;;;;;;2.90;0.40;;;;;;;-145.18;100.00;47562.94;6182035;23;20297;-72
2023/03/27 10:49:35;;;;;;;1.90;0.43;;;;;;;-145.18;100.00;47551.22;6181909;23;20601;-73
2023/03/27 10:52:23;;;;;;;2.70;0.40;;;;;;;-145.18;100.00;47553.16;6181891;23;20040;-73
2023/03/27 10:55:01;;;;;;;3.23;0.63;;;;;;;-145.18;100.00;47578.56;6181526;23;20560;-73
2023/03/27 10:57:36;;;;;;;9.53;0.70;;;;;;;-145.18;100.00;47537.53;6182091;23;20227;-73
2023/03/27 11:00:46;;;;;;;5.27;0.80;;;;;;;-145.18;100.00;47545.34;6181515;23;20723;-73
2023/03/27 11:03:49;;;;;;;6.27;1.07;;;;;;;-145.18;100.00;47519.97;6183562;23;20250;-73
2023/03/27 11:06:18;;;;;;;4.03;0.97;;;;;;;-145.18;100.00;47578.56;6063600;23;20288;-73
2023/03/27 11:08:51;;;;;;;4.03;0.80;;;;;;;-145.18;100.00;47504.31;6063257;23;20564;-73
2023/03/27 11:11:32;;;;;;;8.97;1.10;;;;;;;-145.18;100.00;47598.09;6128062;23;20239;-73
2023/03/27 11:14:02;;;;;;;4.57;0.70;;;;;;;-145.18;100.00;47584.44;6183313;23;20245;-73
2023/03/27 11:16:38;;;;;;;6.60;0.93;;;;;;;-145.18;100.00;47580.53;6184045;23;20223;-72
2023/03/27 11:19:10;;;;;;;7.73;0.90;;;;;;;-145.18;100.00;47555.13;6183576;23;20231;-73
2023/03/27 11:21:38;;;;;;;5.87;1.03;;;;;;;-145.18;100.00;47500.41;6183824;23;20639;-73
2023/03/27 11:24:14;;;;;;;7.27;0.97;;;;;;;-145.18;100.00;47580.53;6183319;23;20340;-72